Birmingham, AL (35201)

9:39 PM CDT on August 04, 2015 (GMT -0500)
UAB HHB | | Change Station
CLOSE
Current Station
Personal Weather Station
Location: Birmingham, AL
Elevation: 617 ft
Nearby Weather Stations

Elev 617 ft 33.50 °N, 86.81 °W | Updated 22 seconds ago

Clear
Clear
90.1 °F
Feels Like 92 °F
N
2.0
Wind Variable Wind from WNW
Gusts 10.0 mph

Today
High -- | Low -- °F
--% Chance of Precip.
Yesterday
High -- | Low -- °F
Precip. -- in
6:01 AM 7:44 PM
Waning Gibbous, 72% visible
Pressure 29.98 in
Visibility 10.0 miles
Clouds Few 15000 ft
Heat Index 92 °F
Dew Point 65 °F
Humidity 43%
Rainfall 0.00 in
Snow Depth Not available.
UV 0 out of 12
Pollen 3.90 out of 12
Air Quality Not available.
Flu Activity Not available.
METAR KBHM 050153Z 00000KT 10SM FEW150 29/21 A3000 RMK AO2 SLP150 T02890211

More Conditions Fewer Conditions

Pressure 29.98 in
Visibility 10.0 miles
Clouds Few 15000 ft
Heat Index 92 °F
Dew Point 65 °F
Humidity 43%
Rainfall 0.00 in
Snow Depth Not available.
UV 0 out of 12
Pollen 3.90 out of 12
Air Quality Not available.
Flu Activity Not available.
METAR KBHM 050153Z 00000KT 10SM FEW150 29/21 A3000 RMK AO2 SLP150 T02890211

More Conditions Fewer Conditions

10-Day Weather Forecast

×

Almanac

Astronomy

Aug. 04, 2015 Rise Set
Actual Time
Civil Twilight
Nautical Twilight
Astronomical Twilight
Moon
Length of Visible Light
Length of Day
Tomorrow will be .
, % of the Moon is Illuminated

Today's Extremes

State Highs State Lows

Community

WunderPhotos

Upload Photos

1,844,087 photos uploaded!

WunderBlogs® & News

Nearby

Air Quality

  Air Quality AQ Index Pollutant
Not available.

Snow Depth

Station Depth Elevation

Earthquake Activity

City Distance Mag. Time & Date
Minimum magnitude displayed is 2.5.

Coastal Water Temperatures

Place Temperature

Stations

Nearby Weather Stations

Station Location Temp. Windchill Dew Point Humidity Wind Precip. Elev Updated Type